Friday, February 23, 2018, 3:18 PM EST
Back to Local

KGNR, Greenville

Location: Greenville, ME, United States Lat: 45.467
Local Time: 3:18 PM EST (20:18 GMT) Lon: -69.583
Time Zone: US/Eastern Elev: 1400 ft

Show me the last for .
Show Coded

Time T Td Feel RH Dir Speed Gust Alt SLP Vis Weather Sky Remarks
2018-02-23 13:56 24 8 10 49 150° 13 20 30.38 30.46 0 None
2018-02-23 12:56 24 8 11 49 150° 9 17 30.44 30.52 0 Pressure falling rapidly
6-hr Min Temp (1pm): 12.0°F
6-hr Max Temp (1pm): 25.0°F
2018-02-23 11:56 23 8 10 52 160° 9 16 30.48 30.56 0 None
2018-02-23 10:56 21 7 11 53 150° 9 - 30.54 30.62 0 None
2018-02-23 09:56 18 6 6 58 140° 10 - 30.56 30.65 0 None
2018-02-23 08:56 17 6 7 61 140° 8 - 30.58 30.67 0 None
2018-02-23 07:56 15 5 6 63 150° 6 - 30.60 30.69 0 None
2018-02-23 06:56 11 5 - 76 - Calm - 30.60 30.69 0 6-hr Min Temp (7am): 10.0°F
6-hr Max Temp (7am): 16.0°F
2018-02-23 05:56 11 5 - 76 - Calm - 30.61 30.70 0 None
2018-02-23 04:56 13 4 - 66 - Calm - 30.62 30.71 0 None
2018-02-23 03:56 14 4 2 63 320° 9 - 30.60 30.68 0 None
2018-02-23 02:56 15 5 2 63 340° 12 - 30.60 30.68 0 None
2018-02-23 01:56 15 6 3 66 360° 10 - 30.61 30.69 0 None
2018-02-23 00:56 16 6 6 64 10° 7 - 30.61 30.69 0 6-hr Min Temp (1am): 15.1°F
6-hr Max Temp (1am): 21.0°F
2018-02-22 23:56 17 6 8 61 10° 7 - 30.60 30.68 0 24-hr Min Temp (12am): 17.1°F
24-hr Max Temp (12am): 28.0°F
2018-02-22 22:56 17 6 10 61 10° 5 - 30.60 30.68 0 None
2018-02-22 21:56 19 8 11 61 40° 6 - 30.59 30.67 0 None
2018-02-22 20:56 19 8 11 61 10° 6 - 30.59 30.67 0 None
2018-02-22 19:56 20 8 12 59 10° 6 - 30.58 30.67 0 None
2018-02-22 18:56 21 8 11 56 330° 9 - 30.57 30.65 0 6-hr Min Temp (7pm): 21.0°F
6-hr Max Temp (7pm): 25.0°F
2018-02-22 17:56 23 7 15 49 320° 7 - 30.56 30.64 0 None
2018-02-22 16:56 25 7 17 45 300° 7 - 30.54 30.62 0 None
2018-02-22 15:56 25 7 15 45 320° 10 - 30.53 30.61 0 None

Support USWX by starting your Amazon purchase here.